Berit — ZDHX2 — position and weather

sailwx.info

Track history (hours):
 
Tides and Currents Weather Stations Pressure Air Temp Water Temp Dewpoint Dewpoint Depression Visibility Wind Speed Wind Dir Waves Ship Positions

Berit

Last reported at 2017-Sep-21 01:31 UTC. Time now 2017-Sep-22 20:59 UTC.
Position N 58°30' E 005°13'.

Length 83 m; draft 3.9 m.

Type: Cargo ship. MMSI: 236386000.

Date/timePositionNaut miles runAvg speedWind from/ knotsBaromVisibWave heightAir tempDewpointWater temp
2017-Sep-21 01:31N 58°30' E 005°13'1 8.3
2017-Sep-21 01:23N 58°31' E 005°13'3 8.2
2017-Sep-21 01:00N 58°35' E 005°13'4 8.5
2017-Sep-21 00:30N 58°39' E 005°14'4 8.8
2017-Sep-21 00:00N 58°43' E 005°15'5 9.1
2017-Sep-20 23:30N 58°48' E 005°15'5 9.5
2017-Sep-20 23:00N 58°52' E 005°16'510.1
2017-Sep-20 22:30N 58°57' E 005°17'510.4
2017-Sep-20 22:00N 59°02' E 005°19'4 8.5
2017-Sep-20 21:30N 59°06' E 005°23'5 9.5
2017-Sep-20 21:00N 59°09' E 005°30'5 9.5
2017-Sep-20 20:30N 59°13' E 005°36'510.1
2017-Sep-20 20:00N 59°16' E 005°44'5 9.9
2017-Sep-20 19:30N 59°19' E 005°51'510.3
2017-Sep-20 19:00N 59°22' E 006°00'5 9.6
2017-Sep-20 18:30N 59°25' E 006°07'510.1
2017-Sep-20 18:00N 59°29' E 006°13'5 9.8
2017-Sep-20 17:29N 59°33' E 006°17'5 9.7
2017-Sep-20 17:00N 59°38' E 006°20'1 2.4
2017-Sep-20 16:29N 59°39' E 006°22'0 0.0
2017-Sep-20 15:59N 59°39' E 006°22'0 0.0
2017-Sep-20 15:29N 59°39' E 006°22'0 0.0
2017-Sep-20 14:59N 59°39' E 006°22'0 0.0
2017-Sep-20 13:59N 59°39' E 006°22'0 0.0
2017-Sep-20 13:29N 59°39' E 006°22'0 0.0
2017-Sep-20 12:59N 59°39' E 006°22'0 0.0
2017-Sep-20 12:29N 59°39' E 006°22'0 0.0
2017-Sep-20 11:59N 59°39' E 006°22'0 0.0
2017-Sep-20 11:29N 59°39' E 006°22'0 0.0
2017-Sep-20 10:59N 59°39' E 006°22'0 0.0
2017-Sep-20 10:29N 59°39' E 006°22'0 0.0
2017-Sep-20 09:59N 59°39' E 006°22'0 0.0
2017-Sep-20 09:29N 59°39' E 006°22'0 0.0
2017-Sep-20 08:59N 59°39' E 006°22'0 0.0
2017-Sep-20 08:29N 59°39' E 006°22'0 0.0
2017-Sep-20 07:59N 59°39' E 006°22'0 0.0
2017-Sep-20 07:29N 59°39' E 006°22'0 0.0
2017-Sep-20 06:59N 59°39' E 006°22'0 0.0
2017-Sep-20 06:29N 59°39' E 006°22'0 0.0
2017-Sep-20 05:59N 59°39' E 006°22'0 0.0
2017-Sep-20 05:29N 59°39' E 006°22'0 0.0
2017-Sep-20 04:59N 59°39' E 006°22'0 0.0
2017-Sep-20 04:29N 59°39' E 006°22'0 0.0
2017-Sep-20 03:59N 59°39' E 006°22'0 0.0
2017-Sep-20 03:29N 59°39' E 006°22'0 0.0
2017-Sep-20 02:59N 59°39' E 006°22'0 0.0
2017-Sep-20 02:29N 59°39' E 006°22'0 0.0
2017-Sep-20 01:59N 59°39' E 006°22'0 0.0
2017-Sep-20 01:29N 59°39' E 006°22'0 0.0
2017-Sep-20 00:59N 59°39' E 006°22'0 0.0
2017-Sep-20 00:29N 59°39' E 006°22'0 0.0
2017-Sep-19 23:59N 59°39' E 006°22'0 0.0
2017-Sep-19 23:29N 59°39' E 006°22'0 0.0
2017-Sep-19 22:59N 59°39' E 006°22'0 0.0
2017-Sep-19 22:29N 59°39' E 006°22'0 0.0
2017-Sep-19 21:59N 59°39' E 006°22'0 0.0
2017-Sep-19 21:29N 59°39' E 006°22'0 0.0
2017-Sep-19 20:59N 59°39' E 006°22'0 0.0
2017-Sep-19 20:29N 59°39' E 006°22'0 0.0
2017-Sep-19 19:59N 59°39' E 006°22'0 0.0
2017-Sep-19 19:29N 59°39' E 006°22'0 0.0
2017-Sep-19 18:59N 59°39' E 006°22'0 0.0
2017-Sep-19 18:29N 59°39' E 006°22'0 0.0
2017-Sep-19 17:56N 59°39' E 006°22'0 0.0
2017-Sep-19 17:29N 59°39' E 006°22'0 0.0
2017-Sep-19 16:59N 59°39' E 006°22'0 0.0
2017-Sep-19 16:26N 59°39' E 006°22'0 0.0
2017-Sep-19 15:59N 59°39' E 006°22'0 0.0
2017-Sep-19 15:29N 59°39' E 006°22'0 0.3
2017-Sep-19 14:59N 59°39' E 006°21'0 0.1
2017-Sep-19 14:29N 59°39' E 006°21'0 0.0
2017-Sep-19 13:59N 59°39' E 006°21'0 0.0
2017-Sep-19 13:29N 59°39' E 006°21'0 0.0
2017-Sep-19 12:59N 59°39' E 006°21'0 0.0
2017-Sep-19 12:29N 59°39' E 006°21'0 0.0
2017-Sep-19 11:59N 59°39' E 006°21'0 0.0
2017-Sep-19 11:29N 59°39' E 006°21'0 0.0
2017-Sep-19 10:59N 59°39' E 006°21'0 0.0
2017-Sep-19 10:29N 59°39' E 006°21'0 0.0
2017-Sep-19 09:59N 59°39' E 006°21'0 0.0
2017-Sep-19 09:29N 59°39' E 006°21'0 0.0
2017-Sep-19 08:56N 59°39' E 006°21'0 0.0
2017-Sep-19 08:29N 59°39' E 006°21'0 0.0
2017-Sep-19 07:59N 59°39' E 006°21'0 0.0
2017-Sep-19 07:29N 59°39' E 006°21'0 0.0
2017-Sep-19 06:59N 59°39' E 006°21'0 0.0
2017-Sep-19 06:29N 59°39' E 006°21'0 0.0
2017-Sep-19 05:59N 59°39' E 006°21'0 0.0
2017-Sep-19 05:26N 59°39' E 006°21'0 0.0
2017-Sep-19 04:56N 59°39' E 006°21'0 0.0
2017-Sep-19 04:26N 59°39' E 006°21'0 0.0
2017-Sep-19 03:59N 59°39' E 006°21'0 0.0
2017-Sep-19 03:26N 59°39' E 006°21'0 0.0
2017-Sep-19 02:59N 59°39' E 006°21'0 0.0
2017-Sep-19 02:26N 59°39' E 006°21'0 0.0
2017-Sep-19 01:59N 59°39' E 006°21'0 0.0
2017-Sep-19 01:26N 59°39' E 006°21'0 0.0
2017-Sep-19 00:59N 59°39' E 006°21'0 0.0
2017-Sep-19 00:29N 59°39' E 006°21'0 0.0
2017-Sep-18 23:59N 59°39' E 006°21'0 0.0
2017-Sep-18 23:26N 59°39' E 006°21'0 0.0
2017-Sep-18 22:56N 59°39' E 006°21'0 0.0
2017-Sep-18 22:29N 59°39' E 006°21'0 0.0
2017-Sep-18 21:59N 59°39' E 006°21'0 0.0
2017-Sep-18 21:26N 59°39' E 006°21'0 0.0
2017-Sep-18 20:56N 59°39' E 006°21'0 0.0
2017-Sep-18 20:29N 59°39' E 006°21'0 0.0
2017-Sep-18 19:56N 59°39' E 006°21'0 0.0
2017-Sep-18 19:29N 59°39' E 006°21'0 0.0
2017-Sep-18 18:56N 59°39' E 006°21'0 0.0
2017-Sep-18 18:29N 59°39' E 006°21'0 0.0
2017-Sep-18 17:56N 59°39' E 006°21'0 0.0
2017-Sep-18 17:29N 59°39' E 006°21'0 0.0
2017-Sep-18 16:59N 59°39' E 006°21'0 0.0
2017-Sep-18 16:29N 59°39' E 006°21'0 0.0
2017-Sep-18 15:59N 59°39' E 006°21'0 0.0
2017-Sep-18 15:29N 59°39' E 006°21'0 0.0
2017-Sep-18 14:59N 59°39' E 006°21'0 0.0
2017-Sep-18 14:29N 59°39' E 006°21'0 0.0
2017-Sep-18 13:59N 59°39' E 006°21'0 0.0
2017-Sep-18 13:29N 59°39' E 006°21'0 0.0
2017-Sep-18 12:56N 59°39' E 006°21'0 0.0
2017-Sep-18 12:29N 59°39' E 006°21'0 0.0
2017-Sep-18 11:59N 59°39' E 006°21'0 0.0
2017-Sep-18 11:26N 59°39' E 006°21'0 0.1
2017-Sep-18 11:00N 59°39' E 006°21'2 3.7
2017-Sep-18 10:31N 59°37' E 006°19'510.4
2017-Sep-18 10:00N 59°32' E 006°16'510.5
2017-Sep-18 09:31N 59°27' E 006°13'5 9.0
2017-Sep-18 09:01N 59°24' E 006°06'5 9.3
2017-Sep-18 08:30N 59°21' E 005°59'510.1
2017-Sep-18 08:00N 59°19' E 005°50'510.1
2017-Sep-18 07:30N 59°15' E 005°43'510.1
2017-Sep-18 07:01N 59°12' E 005°36'510.1
2017-Sep-18 06:31N 59°08' E 005°30'4 7.6
2017-Sep-18 06:01N 59°06' E 005°24'4 7.8
2017-Sep-18 05:31N 59°04' E 005°17'4 8.0
2017-Sep-18 05:00N 59°02' E 005°10'2 3.6
2017-Sep-18 04:30N 59°03' E 005°07'2 3.9
2017-Sep-18 04:00N 59°04' E 005°04'3 6.6
2017-Sep-18 03:30N 59°05' E 004°58'3 6.8
2017-Sep-18 03:00N 59°07' E 004°53'42 6.4
2017-Sep-17 20:27N 59°48' E 004°37'3 7.3
2017-Sep-17 20:00N 59°52' E 004°37'4 7.1
2017-Sep-17 19:30N 59°55' E 004°36'3 7.0
2017-Sep-17 19:00N 59°59' E 004°36'4 7.0
2017-Sep-17 18:30N 60°02' E 004°35'3 6.9
2017-Sep-17 18:00N 60°05' E 004°33'3 6.9
2017-Sep-17 17:30N 60°09' E 004°31'3 7.0
2017-Sep-17 17:00N 60°12' E 004°30'108 7.1
2017-Sep-17 01:45N 62°01' E 004°26'2 8.5
2017-Sep-17 01:30N 62°02' E 004°28'4 8.6
2017-Sep-17 01:00N 62°06' E 004°33'4 8.6
2017-Sep-17 00:30N 62°10' E 004°37'4 8.5
2017-Sep-17 00:00N 62°14' E 004°40'4 8.3
2017-Sep-16 23:30N 62°18' E 004°44'4 7.9
2017-Sep-16 23:01N 62°21' E 004°48'4 7.6
2017-Sep-16 22:30N 62°25' E 004°51'4 8.3
2017-Sep-16 22:00N 62°27' E 004°59'4 8.7
2017-Sep-16 21:30N 62°29' E 005°08'4 8.7
2017-Sep-16 21:00N 62°31' E 005°16'4 8.6
2017-Sep-16 20:30N 62°33' E 005°23'4 8.4
2017-Sep-16 20:00N 62°36' E 005°31'4 8.3
2017-Sep-16 19:30N 62°38' E 005°38'4 8.1
2017-Sep-16 19:00N 62°41' E 005°44'4 8.0
2017-Sep-16 18:30N 62°44' E 005°50'4 7.7
2017-Sep-16 18:00N 62°47' E 005°55'4 7.2
2017-Sep-16 17:30N 62°50' E 005°60'4 7.4
2017-Sep-16 17:00N 62°53' E 006°05'4 7.9
2017-Sep-16 16:30N 62°56' E 006°10'4 8.1
2017-Sep-16 16:00N 62°60' E 006°15'4 7.9
2017-Sep-16 15:30N 63°03' E 006°19'4 7.8
2017-Sep-16 15:00N 63°06' E 006°23'14 6.4
2017-Sep-16 12:48N 63°16' E 006°45'2 6.8
2017-Sep-16 12:30N 63°16' E 006°50'4 8.1
2017-Sep-16 12:00N 63°20' E 006°55'4 8.1
2017-Sep-16 11:30N 63°23' E 006°59'4 7.7
2017-Sep-16 11:00N 63°27' E 007°04'5 7.3
2017-Sep-16 10:23N 63°30' E 007°10'3 7.0
2017-Sep-16 10:00N 63°31' E 007°15'4 7.3
2017-Sep-16 09:30N 63°34' E 007°19'4 7.2
2017-Sep-16 09:00N 63°38' E 007°23'16 6.9
2017-Sep-16 06:42N 63°50' E 007°45'1 7.0
2017-Sep-16 06:30N 63°50' E 007°48'3 5.4
2017-Sep-16 06:00N 63°52' E 007°52'4 7.6
2017-Sep-16 05:30N 63°56' E 007°56'96 7.2
2017-Sep-15 16:08N 65°06' E 010°27'1 8.0
2017-Sep-15 16:00N 65°07' E 010°28'4 8.1
2017-Sep-15 15:30N 65°11' E 010°34'4 8.4
2017-Sep-15 15:00N 65°14' E 010°38'4 8.3
2017-Sep-15 14:30N 65°18' E 010°42'4 8.5
2017-Sep-15 14:00N 65°22' E 010°45'4 8.5
2017-Sep-15 13:30N 65°26' E 010°49'4 8.4
2017-Sep-15 13:00N 65°30' E 010°52'4 8.3
2017-Sep-15 12:30N 65°34' E 010°55'55 7.9
2017-Sep-15 05:32N 66°26' E 011°37'0 6.8
2017-Sep-15 05:31N 66°26' E 011°38'3 6.8
2017-Sep-15 05:01N 66°29' E 011°42'3 6.9
2017-Sep-15 04:30N 66°32' E 011°47'3 7.0
2017-Sep-15 04:01N 66°35' E 011°51'3 6.9
2017-Sep-15 03:30N 66°38' E 011°55'3 6.7
2017-Sep-15 03:00N 66°41' E 011°60'26 7.8
2017-Sep-14 23:43N 67°01' E 012°41'2 8.7
2017-Sep-14 23:30N 67°03' E 012°44'4 8.5
2017-Sep-14 23:00N 67°06' E 012°50'4 7.8
2017-Sep-14 22:30N 67°09' E 012°56'4 8.6
2017-Sep-14 22:00N 67°13' E 013°02'5 9.2
2017-Sep-14 21:30N 67°17' E 013°09'4 8.8
2017-Sep-14 21:00N 67°20' E 013°15'4 8.6
2017-Sep-14 20:30N 67°23' E 013°23'4 8.7
2017-Sep-14 20:01N 67°27' E 013°30'5 8.8
2017-Sep-14 19:30N 67°30' E 013°39'4 8.8
2017-Sep-14 19:00N 67°33' E 013°46'4 8.2
2017-Sep-14 18:30N 67°36' E 013°53'4 7.9
2017-Sep-14 18:00N 67°40' E 013°59'4 8.0
2017-Sep-14 17:30N 67°43' E 014°05'4 8.0
2017-Sep-14 17:00N 67°46' E 014°11'4 7.9
2017-Sep-14 16:30N 67°49' E 014°18'4 8.0
2017-Sep-14 16:00N 67°52' E 014°25'4 8.2
2017-Sep-14 15:30N 67°55' E 014°33'4 8.4
2017-Sep-14 15:00N 67°57' E 014°42'4 8.3
2017-Sep-14 14:30N 68°00' E 014°51'4 8.2
2017-Sep-14 14:01N 68°02' E 014°59'4 7.9
2017-Sep-14 13:31N 68°05' E 015°08'4 7.7
2017-Sep-14 13:00N 68°07' E 015°16'4 8.3
2017-Sep-14 12:30N 68°10' E 015°24'4 8.5
2017-Sep-14 12:00N 68°13' E 015°32'5 9.1
2017-Sep-14 11:30N 68°13' E 015°19'510.1
2017-Sep-14 11:00N 68°12' E 015°06'4 8.0
2017-Sep-14 10:30N 68°14' E 014°56'510.4
2017-Sep-14 10:00N 68°19' E 014°58'510.4
2017-Sep-14 09:30N 68°24' E 015°06'510.4
2017-Sep-14 09:00N 68°28' E 015°12'4 9.2
2017-Sep-14 08:30N 68°32' E 015°06'4 8.2
2017-Sep-14 08:00N 68°35' E 014°57'0 0.1
2017-Sep-14 07:30N 68°35' E 014°57'0 0.0
2017-Sep-14 07:00N 68°35' E 014°57'0 0.0
2017-Sep-14 06:30N 68°35' E 014°57'0 0.0
2017-Sep-14 06:00N 68°35' E 014°57'0 0.0
2017-Sep-14 05:30N 68°35' E 014°57'0 0.0
2017-Sep-14 05:00N 68°35' E 014°57'0 0.0
2017-Sep-14 04:30N 68°35' E 014°57'0 0.0
2017-Sep-14 04:00N 68°35' E 014°57'0 0.0
2017-Sep-14 03:24N 68°35' E 014°57'0 0.0
2017-Sep-14 03:00N 68°35' E 014°57'0 0.0
2017-Sep-14 02:30N 68°35' E 014°57'0 0.0
2017-Sep-14 02:00N 68°35' E 014°57'0 0.0
2017-Sep-14 01:30N 68°35' E 014°57'0 0.0
2017-Sep-14 01:00N 68°35' E 014°57'0 0.0
2017-Sep-14 00:30N 68°35' E 014°57'0 0.0
2017-Sep-14 00:00N 68°35' E 014°57'0 0.0
2017-Sep-13 23:30N 68°35' E 014°57'0 0.0
2017-Sep-13 23:00N 68°35' E 014°57'0 0.0
2017-Sep-13 22:30N 68°35' E 014°57'0 0.0
2017-Sep-13 22:00N 68°35' E 014°57'0 0.0
2017-Sep-13 21:30N 68°35' E 014°57'0 0.0
2017-Sep-13 21:00N 68°35' E 014°57'0 0.0
2017-Sep-13 20:30N 68°35' E 014°57'0 0.0
2017-Sep-13 20:00N 68°35' E 014°57'0 0.0
2017-Sep-13 19:30N 68°35' E 014°57'0 0.0
2017-Sep-13 18:54N 68°35' E 014°57'0 0.0
2017-Sep-13 18:30N 68°35' E 014°57'0 0.0
2017-Sep-13 18:00N 68°35' E 014°57'0 0.0
2017-Sep-13 17:30N 68°35' E 014°57'0 0.0
2017-Sep-13 17:00N 68°35' E 014°57'0 0.0
2017-Sep-13 16:30N 68°35' E 014°57'0 0.0
2017-Sep-13 16:00N 68°35' E 014°57'0 0.0
2017-Sep-13 15:30N 68°35' E 014°57'0 0.0
2017-Sep-13 15:00N 68°35' E 014°57'0 0.0
2017-Sep-13 14:30N 68°35' E 014°57'0 0.0
2017-Sep-13 14:00N 68°35' E 014°57'0 0.0
2017-Sep-13 13:30N 68°35' E 014°57'0 0.0
2017-Sep-13 13:00N 68°35' E 014°57'0 0.0
2017-Sep-13 12:30N 68°35' E 014°57'0 0.0
2017-Sep-13 12:00N 68°35' E 014°57'0 0.0
2017-Sep-13 11:30N 68°35' E 014°57'0 0.0
2017-Sep-13 11:00N 68°35' E 014°57'0 0.0
2017-Sep-13 10:30N 68°35' E 014°57'0 0.0
2017-Sep-13 10:00N 68°35' E 014°57'0 0.0
2017-Sep-13 09:30N 68°35' E 014°57'0 0.0
2017-Sep-13 09:00N 68°35' E 014°57'0 0.0
2017-Sep-13 08:30N 68°35' E 014°57'0 0.0
2017-Sep-13 08:00N 68°35' E 014°57'0 0.0
2017-Sep-13 07:30N 68°35' E 014°57'0 0.0
2017-Sep-13 07:00N 68°35' E 014°57'0 0.0
2017-Sep-13 06:30N 68°35' E 014°57'0 0.0
2017-Sep-13 06:00N 68°35' E 014°57'0 0.0
2017-Sep-13 05:30N 68°35' E 014°57'0 0.0
2017-Sep-13 05:00N 68°35' E 014°57'0 0.0
2017-Sep-13 04:30N 68°35' E 014°57'0 0.0
2017-Sep-13 04:00N 68°34' E 014°57'0 0.0
2017-Sep-13 03:30N 68°35' E 014°57'0 0.0
2017-Sep-13 03:00N 68°35' E 014°57'0 0.0
2017-Sep-13 02:30N 68°35' E 014°57'0 0.0
2017-Sep-13 02:00N 68°35' E 014°57'0 0.0
2017-Sep-13 01:30N 68°35' E 014°57'0 0.0
2017-Sep-13 01:00N 68°35' E 014°57'0 0.0
2017-Sep-13 00:30N 68°35' E 014°57'0 0.0
2017-Sep-13 00:00N 68°35' E 014°57'0 0.0
2017-Sep-12 23:30N 68°35' E 014°57'0 0.0
2017-Sep-12 23:00N 68°35' E 014°57'0 0.0
2017-Sep-12 22:30N 68°35' E 014°57'0 0.0
2017-Sep-12 22:00N 68°35' E 014°57'0 0.0
2017-Sep-12 21:30N 68°35' E 014°57'0 0.0
2017-Sep-12 21:00N 68°35' E 014°57'0 0.0
2017-Sep-12 20:30N 68°35' E 014°57'0 0.0
2017-Sep-12 20:00N 68°35' E 014°57'0 0.0
2017-Sep-12 19:30N 68°35' E 014°57'0 0.0
2017-Sep-12 19:00N 68°35' E 014°57'0 0.0
2017-Sep-12 18:30N 68°35' E 014°57'1 1.3
2017-Sep-12 18:00N 68°34' E 014°59'5 9.7
2017-Sep-12 17:30N 68°31' E 015°08'4 9.0
2017-Sep-12 17:00N 68°27' E 015°11'611.3
2017-Sep-12 16:30N 68°22' E 015°03'5 9.7
2017-Sep-12 16:00N 68°17' E 014°58'5 9.3
2017-Sep-12 15:30N 68°13' E 014°57'510.2
2017-Sep-12 15:00N 68°12' E 015°11'510.1
2017-Sep-12 14:30N 68°13' E 015°25'3 6.4
2017-Sep-12 14:00N 68°12' E 015°33'5 9.7
2017-Sep-12 13:30N 68°10' E 015°22'4 8.5
2017-Sep-12 13:00N 68°07' E 015°13'4 8.8
2017-Sep-12 12:30N 68°05' E 015°04'4 8.5
2017-Sep-12 12:00N 68°02' E 014°54'4 8.2
2017-Sep-12 11:30N 67°60' E 014°45'4 8.4
2017-Sep-12 11:00N 67°57' E 014°37'4 8.5
2017-Sep-12 10:30N 67°54' E 014°29'4 8.4
2017-Sep-12 10:00N 67°51' E 014°21'4 8.3
2017-Sep-12 09:30N 67°48' E 014°14'4 8.4
2017-Sep-12 09:00N 67°45' E 014°07'4 8.4
2017-Sep-12 08:30N 67°41' E 013°60'4 8.2
2017-Sep-12 08:00N 67°38' E 013°53'4 8.3
2017-Sep-12 07:29N 67°35' E 013°45'4 8.4
2017-Sep-12 07:00N 67°32' E 013°37'4 8.5
2017-Sep-12 06:30N 67°29' E 013°29'4 8.5
2017-Sep-12 05:59N 67°26' E 013°21'4 8.8
2017-Sep-12 05:30N 67°23' E 013°14'4 8.7
2017-Sep-12 05:00N 67°20' E 013°07'4 8.2
2017-Sep-12 04:30N 67°16' E 013°01'39 7.6
2017-Sep-11 23:19N 66°45' E 011°58'2 7.7
2017-Sep-11 23:00N 66°44' E 011°54'4 7.8
2017-Sep-11 22:30N 66°40' E 011°49'4 7.8
2017-Sep-11 22:00N 66°37' E 011°44'4 8.1
2017-Sep-11 21:31N 66°33' E 011°40'4 8.1
2017-Sep-11 21:00N 66°29' E 011°36'4 8.3
2017-Sep-11 20:30N 66°26' E 011°32'  
Track history (hours):
 
Tides and Currents Weather Stations Pressure Air Temp Water Temp Dewpoint Dewpoint Depression Visibility Wind Speed Wind Dir Waves Ship Positions

Berit

Last reported at 2017-Sep-21 01:31 UTC. Time now 2017-Sep-22 20:59 UTC.
Position N 58°30' E 005°13'.

Length 83 m; draft 3.9 m.

Type: Cargo ship. MMSI: 236386000.

Date/timePositionNaut miles runAvg speedWind from/ knotsBaromVisibWave heightAir tempDewpointWater temp
2017-Sep-21 01:31N 58°30' E 005°13'1 8.3
2017-Sep-21 01:23N 58°31' E 005°13'3 8.2
2017-Sep-21 01:00N 58°35' E 005°13'4 8.5
2017-Sep-21 00:30N 58°39' E 005°14'4 8.8
2017-Sep-21 00:00N 58°43' E 005°15'5 9.1
2017-Sep-20 23:30N 58°48' E 005°15'5 9.5
2017-Sep-20 23:00N 58°52' E 005°16'510.1
2017-Sep-20 22:30N 58°57' E 005°17'510.4
2017-Sep-20 22:00N 59°02' E 005°19'4 8.5
2017-Sep-20 21:30N 59°06' E 005°23'5 9.5
2017-Sep-20 21:00N 59°09' E 005°30'5 9.5
2017-Sep-20 20:30N 59°13' E 005°36'510.1
2017-Sep-20 20:00N 59°16' E 005°44'5 9.9
2017-Sep-20 19:30N 59°19' E 005°51'510.3
2017-Sep-20 19:00N 59°22' E 006°00'5 9.6
2017-Sep-20 18:30N 59°25' E 006°07'510.1
2017-Sep-20 18:00N 59°29' E 006°13'5 9.8
2017-Sep-20 17:29N 59°33' E 006°17'5 9.7
2017-Sep-20 17:00N 59°38' E 006°20'1 2.4
2017-Sep-20 16:29N 59°39' E 006°22'0 0.0
2017-Sep-20 15:59N 59°39' E 006°22'0 0.0
2017-Sep-20 15:29N 59°39' E 006°22'0 0.0
2017-Sep-20 14:59N 59°39' E 006°22'0 0.0
2017-Sep-20 13:59N 59°39' E 006°22'0 0.0
2017-Sep-20 13:29N 59°39' E 006°22'0 0.0
2017-Sep-20 12:59N 59°39' E 006°22'0 0.0
2017-Sep-20 12:29N 59°39' E 006°22'0 0.0
2017-Sep-20 11:59N 59°39' E 006°22'0 0.0
2017-Sep-20 11:29N 59°39' E 006°22'0 0.0
2017-Sep-20 10:59N 59°39' E 006°22'0 0.0
2017-Sep-20 10:29N 59°39' E 006°22'0 0.0
2017-Sep-20 09:59N 59°39' E 006°22'0 0.0
2017-Sep-20 09:29N 59°39' E 006°22'0 0.0
2017-Sep-20 08:59N 59°39' E 006°22'0 0.0
2017-Sep-20 08:29N 59°39' E 006°22'0 0.0
2017-Sep-20 07:59N 59°39' E 006°22'0 0.0
2017-Sep-20 07:29N 59°39' E 006°22'0 0.0
2017-Sep-20 06:59N 59°39' E 006°22'0 0.0
2017-Sep-20 06:29N 59°39' E 006°22'0 0.0
2017-Sep-20 05:59N 59°39' E 006°22'0 0.0
2017-Sep-20 05:29N 59°39' E 006°22'0 0.0
2017-Sep-20 04:59N 59°39' E 006°22'0 0.0
2017-Sep-20 04:29N 59°39' E 006°22'0 0.0
2017-Sep-20 03:59N 59°39' E 006°22'0 0.0
2017-Sep-20 03:29N 59°39' E 006°22'0 0.0
2017-Sep-20 02:59N 59°39' E 006°22'0 0.0
2017-Sep-20 02:29N 59°39' E 006°22'0 0.0
2017-Sep-20 01:59N 59°39' E 006°22'0 0.0
2017-Sep-20 01:29N 59°39' E 006°22'0 0.0
2017-Sep-20 00:59N 59°39' E 006°22'0 0.0
2017-Sep-20 00:29N 59°39' E 006°22'0 0.0
2017-Sep-19 23:59N 59°39' E 006°22'0 0.0
2017-Sep-19 23:29N 59°39' E 006°22'0 0.0
2017-Sep-19 22:59N 59°39' E 006°22'0 0.0
2017-Sep-19 22:29N 59°39' E 006°22'0 0.0
2017-Sep-19 21:59N 59°39' E 006°22'0 0.0
2017-Sep-19 21:29N 59°39' E 006°22'0 0.0
2017-Sep-19 20:59N 59°39' E 006°22'0 0.0
2017-Sep-19 20:29N 59°39' E 006°22'0 0.0
2017-Sep-19 19:59N 59°39' E 006°22'0 0.0
2017-Sep-19 19:29N 59°39' E 006°22'0 0.0
2017-Sep-19 18:59N 59°39' E 006°22'0 0.0
2017-Sep-19 18:29N 59°39' E 006°22'0 0.0
2017-Sep-19 17:56N 59°39' E 006°22'0 0.0
2017-Sep-19 17:29N 59°39' E 006°22'0 0.0
2017-Sep-19 16:59N 59°39' E 006°22'0 0.0
2017-Sep-19 16:26N 59°39' E 006°22'0 0.0
2017-Sep-19 15:59N 59°39' E 006°22'0 0.0
2017-Sep-19 15:29N 59°39' E 006°22'0 0.3
2017-Sep-19 14:59N 59°39' E 006°21'0 0.1
2017-Sep-19 14:29N 59°39' E 006°21'0 0.0
2017-Sep-19 13:59N 59°39' E 006°21'0 0.0
2017-Sep-19 13:29N 59°39' E 006°21'0 0.0
2017-Sep-19 12:59N 59°39' E 006°21'0 0.0
2017-Sep-19 12:29N 59°39' E 006°21'0 0.0
2017-Sep-19 11:59N 59°39' E 006°21'0 0.0
2017-Sep-19 11:29N 59°39' E 006°21'0 0.0
2017-Sep-19 10:59N 59°39' E 006°21'0 0.0
2017-Sep-19 10:29N 59°39' E 006°21'0 0.0
2017-Sep-19 09:59N 59°39' E 006°21'0 0.0
2017-Sep-19 09:29N 59°39' E 006°21'0 0.0
2017-Sep-19 08:56N 59°39' E 006°21'0 0.0
2017-Sep-19 08:29N 59°39' E 006°21'0 0.0
2017-Sep-19 07:59N 59°39' E 006°21'0 0.0
2017-Sep-19 07:29N 59°39' E 006°21'0 0.0
2017-Sep-19 06:59N 59°39' E 006°21'0 0.0
2017-Sep-19 06:29N 59°39' E 006°21'0 0.0
2017-Sep-19 05:59N 59°39' E 006°21'0 0.0
2017-Sep-19 05:26N 59°39' E 006°21'0 0.0
2017-Sep-19 04:56N 59°39' E 006°21'0 0.0
2017-Sep-19 04:26N 59°39' E 006°21'0 0.0
2017-Sep-19 03:59N 59°39' E 006°21'0 0.0
2017-Sep-19 03:26N 59°39' E 006°21'0 0.0
2017-Sep-19 02:59N 59°39' E 006°21'0 0.0
2017-Sep-19 02:26N 59°39' E 006°21'0 0.0
2017-Sep-19 01:59N 59°39' E 006°21'0 0.0
2017-Sep-19 01:26N 59°39' E 006°21'0 0.0
2017-Sep-19 00:59N 59°39' E 006°21'0 0.0
2017-Sep-19 00:29N 59°39' E 006°21'0 0.0
2017-Sep-18 23:59N 59°39' E 006°21'0 0.0
2017-Sep-18 23:26N 59°39' E 006°21'0 0.0
2017-Sep-18 22:56N 59°39' E 006°21'0 0.0
2017-Sep-18 22:29N 59°39' E 006°21'0 0.0
2017-Sep-18 21:59N 59°39' E 006°21'0 0.0
2017-Sep-18 21:26N 59°39' E 006°21'0 0.0
2017-Sep-18 20:56N 59°39' E 006°21'0 0.0
2017-Sep-18 20:29N 59°39' E 006°21'0 0.0
2017-Sep-18 19:56N 59°39' E 006°21'0 0.0
2017-Sep-18 19:29N 59°39' E 006°21'0 0.0
2017-Sep-18 18:56N 59°39' E 006°21'0 0.0
2017-Sep-18 18:29N 59°39' E 006°21'0 0.0
2017-Sep-18 17:56N 59°39' E 006°21'0 0.0
2017-Sep-18 17:29N 59°39' E 006°21'0 0.0
2017-Sep-18 16:59N 59°39' E 006°21'0 0.0
2017-Sep-18 16:29N 59°39' E 006°21'0 0.0
2017-Sep-18 15:59N 59°39' E 006°21'0 0.0
2017-Sep-18 15:29N 59°39' E 006°21'0 0.0
2017-Sep-18 14:59N 59°39' E 006°21'0 0.0
2017-Sep-18 14:29N 59°39' E 006°21'0 0.0
2017-Sep-18 13:59N 59°39' E 006°21'0 0.0
2017-Sep-18 13:29N 59°39' E 006°21'0 0.0
2017-Sep-18 12:56N 59°39' E 006°21'0 0.0
2017-Sep-18 12:29N 59°39' E 006°21'0 0.0
2017-Sep-18 11:59N 59°39' E 006°21'0 0.0
2017-Sep-18 11:26N 59°39' E 006°21'0 0.1
2017-Sep-18 11:00N 59°39' E 006°21'2 3.7
2017-Sep-18 10:31N 59°37' E 006°19'510.4
2017-Sep-18 10:00N 59°32' E 006°16'510.5
2017-Sep-18 09:31N 59°27' E 006°13'5 9.0
2017-Sep-18 09:01N 59°24' E 006°06'5 9.3
2017-Sep-18 08:30N 59°21' E 005°59'510.1
2017-Sep-18 08:00N 59°19' E 005°50'510.1
2017-Sep-18 07:30N 59°15' E 005°43'510.1
2017-Sep-18 07:01N 59°12' E 005°36'510.1
2017-Sep-18 06:31N 59°08' E 005°30'4 7.6
2017-Sep-18 06:01N 59°06' E 005°24'4 7.8
2017-Sep-18 05:31N 59°04' E 005°17'4 8.0
2017-Sep-18 05:00N 59°02' E 005°10'2 3.6
2017-Sep-18 04:30N 59°03' E 005°07'2 3.9
2017-Sep-18 04:00N 59°04' E 005°04'3 6.6
2017-Sep-18 03:30N 59°05' E 004°58'3 6.8
2017-Sep-18 03:00N 59°07' E 004°53'42 6.4
2017-Sep-17 20:27N 59°48' E 004°37'3 7.3
2017-Sep-17 20:00N 59°52' E 004°37'4 7.1
2017-Sep-17 19:30N 59°55' E 004°36'3 7.0
2017-Sep-17 19:00N 59°59' E 004°36'4 7.0
2017-Sep-17 18:30N 60°02' E 004°35'3 6.9
2017-Sep-17 18:00N 60°05' E 004°33'3 6.9
2017-Sep-17 17:30N 60°09' E 004°31'3 7.0
2017-Sep-17 17:00N 60°12' E 004°30'108 7.1
2017-Sep-17 01:45N 62°01' E 004°26'2 8.5
2017-Sep-17 01:30N 62°02' E 004°28'4 8.6
2017-Sep-17 01:00N 62°06' E 004°33'4 8.6
2017-Sep-17 00:30N 62°10' E 004°37'4 8.5
2017-Sep-17 00:00N 62°14' E 004°40'4 8.3
2017-Sep-16 23:30N 62°18' E 004°44'4 7.9
2017-Sep-16 23:01N 62°21' E 004°48'4 7.6
2017-Sep-16 22:30N 62°25' E 004°51'4 8.3
2017-Sep-16 22:00N 62°27' E 004°59'4 8.7
2017-Sep-16 21:30N 62°29' E 005°08'4 8.7
2017-Sep-16 21:00N 62°31' E 005°16'4 8.6
2017-Sep-16 20:30N 62°33' E 005°23'4 8.4
2017-Sep-16 20:00N 62°36' E 005°31'4 8.3
2017-Sep-16 19:30N 62°38' E 005°38'4 8.1
2017-Sep-16 19:00N 62°41' E 005°44'4 8.0
2017-Sep-16 18:30N 62°44' E 005°50'4 7.7
2017-Sep-16 18:00N 62°47' E 005°55'4 7.2
2017-Sep-16 17:30N 62°50' E 005°60'4 7.4
2017-Sep-16 17:00N 62°53' E 006°05'4 7.9
2017-Sep-16 16:30N 62°56' E 006°10'4 8.1
2017-Sep-16 16:00N 62°60' E 006°15'4 7.9
2017-Sep-16 15:30N 63°03' E 006°19'4 7.8
2017-Sep-16 15:00N 63°06' E 006°23'14 6.4
2017-Sep-16 12:48N 63°16' E 006°45'2 6.8
2017-Sep-16 12:30N 63°16' E 006°50'4 8.1
2017-Sep-16 12:00N 63°20' E 006°55'4 8.1
2017-Sep-16 11:30N 63°23' E 006°59'4 7.7
2017-Sep-16 11:00N 63°27' E 007°04'5 7.3
2017-Sep-16 10:23N 63°30' E 007°10'3 7.0
2017-Sep-16 10:00N 63°31' E 007°15'4 7.3
2017-Sep-16 09:30N 63°34' E 007°19'4 7.2
2017-Sep-16 09:00N 63°38' E 007°23'16 6.9
2017-Sep-16 06:42N 63°50' E 007°45'1 7.0
2017-Sep-16 06:30N 63°50' E 007°48'3 5.4
2017-Sep-16 06:00N 63°52' E 007°52'4 7.6
2017-Sep-16 05:30N 63°56' E 007°56'96 7.2
2017-Sep-15 16:08N 65°06' E 010°27'1 8.0
2017-Sep-15 16:00N 65°07' E 010°28'4 8.1
2017-Sep-15 15:30N 65°11' E 010°34'4 8.4
2017-Sep-15 15:00N 65°14' E 010°38'4 8.3
2017-Sep-15 14:30N 65°18' E 010°42'4 8.5
2017-Sep-15 14:00N 65°22' E 010°45'4 8.5
2017-Sep-15 13:30N 65°26' E 010°49'4 8.4
2017-Sep-15 13:00N 65°30' E 010°52'4 8.3
2017-Sep-15 12:30N 65°34' E 010°55'55 7.9
2017-Sep-15 05:32N 66°26' E 011°37'0 6.8
2017-Sep-15 05:31N 66°26' E 011°38'3 6.8
2017-Sep-15 05:01N 66°29' E 011°42'3 6.9
2017-Sep-15 04:30N 66°32' E 011°47'3 7.0
2017-Sep-15 04:01N 66°35' E 011°51'3 6.9
2017-Sep-15 03:30N 66°38' E 011°55'3 6.7
2017-Sep-15 03:00N 66°41' E 011°60'26 7.8
2017-Sep-14 23:43N 67°01' E 012°41'2 8.7
2017-Sep-14 23:30N 67°03' E 012°44'4 8.5
2017-Sep-14 23:00N 67°06' E 012°50'4 7.8
2017-Sep-14 22:30N 67°09' E 012°56'4 8.6
2017-Sep-14 22:00N 67°13' E 013°02'5 9.2
2017-Sep-14 21:30N 67°17' E 013°09'4 8.8
2017-Sep-14 21:00N 67°20' E 013°15'4 8.6
2017-Sep-14 20:30N 67°23' E 013°23'4 8.7
2017-Sep-14 20:01N 67°27' E 013°30'5 8.8
2017-Sep-14 19:30N 67°30' E 013°39'4 8.8
2017-Sep-14 19:00N 67°33' E 013°46'4 8.2
2017-Sep-14 18:30N 67°36' E 013°53'4 7.9
2017-Sep-14 18:00N 67°40' E 013°59'4 8.0
2017-Sep-14 17:30N 67°43' E 014°05'4 8.0
2017-Sep-14 17:00N 67°46' E 014°11'4 7.9
2017-Sep-14 16:30N 67°49' E 014°18'4 8.0
2017-Sep-14 16:00N 67°52' E 014°25'4 8.2
2017-Sep-14 15:30N 67°55' E 014°33'4 8.4
2017-Sep-14 15:00N 67°57' E 014°42'4 8.3
2017-Sep-14 14:30N 68°00' E 014°51'4 8.2
2017-Sep-14 14:01N 68°02' E 014°59'4 7.9
2017-Sep-14 13:31N 68°05' E 015°08'4 7.7
2017-Sep-14 13:00N 68°07' E 015°16'4 8.3
2017-Sep-14 12:30N 68°10' E 015°24'4 8.5
2017-Sep-14 12:00N 68°13' E 015°32'5 9.1
2017-Sep-14 11:30N 68°13' E 015°19'510.1
2017-Sep-14 11:00N 68°12' E 015°06'4 8.0
2017-Sep-14 10:30N 68°14' E 014°56'510.4
2017-Sep-14 10:00N 68°19' E 014°58'510.4
2017-Sep-14 09:30N 68°24' E 015°06'510.4
2017-Sep-14 09:00N 68°28' E 015°12'4 9.2
2017-Sep-14 08:30N 68°32' E 015°06'4 8.2
2017-Sep-14 08:00N 68°35' E 014°57'0 0.1
2017-Sep-14 07:30N 68°35' E 014°57'0 0.0
2017-Sep-14 07:00N 68°35' E 014°57'0 0.0
2017-Sep-14 06:30N 68°35' E 014°57'0 0.0
2017-Sep-14 06:00N 68°35' E 014°57'0 0.0
2017-Sep-14 05:30N 68°35' E 014°57'0 0.0
2017-Sep-14 05:00N 68°35' E 014°57'0 0.0
2017-Sep-14 04:30N 68°35' E 014°57'0 0.0
2017-Sep-14 04:00N 68°35' E 014°57'0 0.0
2017-Sep-14 03:24N 68°35' E 014°57'0 0.0
2017-Sep-14 03:00N 68°35' E 014°57'0 0.0
2017-Sep-14 02:30N 68°35' E 014°57'0 0.0
2017-Sep-14 02:00N 68°35' E 014°57'0 0.0
2017-Sep-14 01:30N 68°35' E 014°57'0 0.0
2017-Sep-14 01:00N 68°35' E 014°57'0 0.0
2017-Sep-14 00:30N 68°35' E 014°57'0 0.0
2017-Sep-14 00:00N 68°35' E 014°57'0 0.0
2017-Sep-13 23:30N 68°35' E 014°57'0 0.0
2017-Sep-13 23:00N 68°35' E 014°57'0 0.0
2017-Sep-13 22:30N 68°35' E 014°57'0 0.0
2017-Sep-13 22:00N 68°35' E 014°57'0 0.0
2017-Sep-13 21:30N 68°35' E 014°57'0 0.0
2017-Sep-13 21:00N 68°35' E 014°57'0 0.0
2017-Sep-13 20:30N 68°35' E 014°57'0 0.0
2017-Sep-13 20:00N 68°35' E 014°57'0 0.0
2017-Sep-13 19:30N 68°35' E 014°57'0 0.0
2017-Sep-13 18:54N 68°35' E 014°57'0 0.0
2017-Sep-13 18:30N 68°35' E 014°57'0 0.0
2017-Sep-13 18:00N 68°35' E 014°57'0 0.0
2017-Sep-13 17:30N 68°35' E 014°57'0 0.0
2017-Sep-13 17:00N 68°35' E 014°57'0 0.0
2017-Sep-13 16:30N 68°35' E 014°57'0 0.0
2017-Sep-13 16:00N 68°35' E 014°57'0 0.0
2017-Sep-13 15:30N 68°35' E 014°57'0 0.0
2017-Sep-13 15:00N 68°35' E 014°57'0 0.0
2017-Sep-13 14:30N 68°35' E 014°57'0 0.0
2017-Sep-13 14:00N 68°35' E 014°57'0 0.0
2017-Sep-13 13:30N 68°35' E 014°57'0 0.0
2017-Sep-13 13:00N 68°35' E 014°57'0 0.0
2017-Sep-13 12:30N 68°35' E 014°57'0 0.0
2017-Sep-13 12:00N 68°35' E 014°57'0 0.0
2017-Sep-13 11:30N 68°35' E 014°57'0 0.0
2017-Sep-13 11:00N 68°35' E 014°57'0 0.0
2017-Sep-13 10:30N 68°35' E 014°57'0 0.0
2017-Sep-13 10:00N 68°35' E 014°57'0 0.0
2017-Sep-13 09:30N 68°35' E 014°57'0 0.0
2017-Sep-13 09:00N 68°35' E 014°57'0 0.0
2017-Sep-13 08:30N 68°35' E 014°57'0 0.0
2017-Sep-13 08:00N 68°35' E 014°57'0 0.0
2017-Sep-13 07:30N 68°35' E 014°57'0 0.0
2017-Sep-13 07:00N 68°35' E 014°57'0 0.0
2017-Sep-13 06:30N 68°35' E 014°57'0 0.0
2017-Sep-13 06:00N 68°35' E 014°57'0 0.0
2017-Sep-13 05:30N 68°35' E 014°57'0 0.0
2017-Sep-13 05:00N 68°35' E 014°57'0 0.0
2017-Sep-13 04:30N 68°35' E 014°57'0 0.0
2017-Sep-13 04:00N 68°34' E 014°57'0 0.0
2017-Sep-13 03:30N 68°35' E 014°57'0 0.0
2017-Sep-13 03:00N 68°35' E 014°57'0 0.0
2017-Sep-13 02:30N 68°35' E 014°57'0 0.0
2017-Sep-13 02:00N 68°35' E 014°57'0 0.0
2017-Sep-13 01:30N 68°35' E 014°57'0 0.0
2017-Sep-13 01:00N 68°35' E 014°57'0 0.0
2017-Sep-13 00:30N 68°35' E 014°57'0 0.0
2017-Sep-13 00:00N 68°35' E 014°57'0 0.0
2017-Sep-12 23:30N 68°35' E 014°57'0 0.0
2017-Sep-12 23:00N 68°35' E 014°57'0 0.0
2017-Sep-12 22:30N 68°35' E 014°57'0 0.0
2017-Sep-12 22:00N 68°35' E 014°57'0 0.0
2017-Sep-12 21:30N 68°35' E 014°57'0 0.0
2017-Sep-12 21:00N 68°35' E 014°57'0 0.0
2017-Sep-12 20:30N 68°35' E 014°57'0 0.0
2017-Sep-12 20:00N 68°35' E 014°57'0 0.0
2017-Sep-12 19:30N 68°35' E 014°57'0 0.0
2017-Sep-12 19:00N 68°35' E 014°57'0 0.0
2017-Sep-12 18:30N 68°35' E 014°57'1 1.3
2017-Sep-12 18:00N 68°34' E 014°59'5 9.7
2017-Sep-12 17:30N 68°31' E 015°08'4 9.0
2017-Sep-12 17:00N 68°27' E 015°11'611.3
2017-Sep-12 16:30N 68°22' E 015°03'5 9.7
2017-Sep-12 16:00N 68°17' E 014°58'5 9.3
2017-Sep-12 15:30N 68°13' E 014°57'510.2
2017-Sep-12 15:00N 68°12' E 015°11'510.1
2017-Sep-12 14:30N 68°13' E 015°25'3 6.4
2017-Sep-12 14:00N 68°12' E 015°33'5 9.7
2017-Sep-12 13:30N 68°10' E 015°22'4 8.5
2017-Sep-12 13:00N 68°07' E 015°13'4 8.8
2017-Sep-12 12:30N 68°05' E 015°04'4 8.5
2017-Sep-12 12:00N 68°02' E 014°54'4 8.2
2017-Sep-12 11:30N 67°60' E 014°45'4 8.4
2017-Sep-12 11:00N 67°57' E 014°37'4 8.5
2017-Sep-12 10:30N 67°54' E 014°29'4 8.4
2017-Sep-12 10:00N 67°51' E 014°21'4 8.3
2017-Sep-12 09:30N 67°48' E 014°14'4 8.4
2017-Sep-12 09:00N 67°45' E 014°07'4 8.4
2017-Sep-12 08:30N 67°41' E 013°60'4 8.2
2017-Sep-12 08:00N 67°38' E 013°53'4 8.3
2017-Sep-12 07:29N 67°35' E 013°45'4 8.4
2017-Sep-12 07:00N 67°32' E 013°37'4 8.5
2017-Sep-12 06:30N 67°29' E 013°29'4 8.5
2017-Sep-12 05:59N 67°26' E 013°21'4 8.8
2017-Sep-12 05:30N 67°23' E 013°14'4 8.7
2017-Sep-12 05:00N 67°20' E 013°07'4 8.2
2017-Sep-12 04:30N 67°16' E 013°01'39 7.6
2017-Sep-11 23:19N 66°45' E 011°58'2 7.7
2017-Sep-11 23:00N 66°44' E 011°54'4 7.8
2017-Sep-11 22:30N 66°40' E 011°49'4 7.8
2017-Sep-11 22:00N 66°37' E 011°44'4 8.1
2017-Sep-11 21:31N 66°33' E 011°40'4 8.1
2017-Sep-11 21:00N 66°29' E 011°36'4 8.3
2017-Sep-11 20:30N 66°26' E 011°32'  

Dump ship's entire track history